Terminal Aerodrome Forecast
Issued by NWS

Home | Current Version | Previous Version | Text Only | Print | Product List | Glossary On
Versions: 1 2 3 4 5 6 7 8 9 10 11 12 13 14 15
000
FTUS46 KSEW 221733
TAFBFI
TAF
KBFI 221733Z 2218/2318 12008KT P6SM -RA OVC040
     FM222000 14008KT P6SM SCT040 BKN050
     FM230200 12005KT P6SM SCT050 BKN100
     FM230600 05004KT P6SM SCT050 SCT100=

USA.gov is the U.S. government's official web portal to all federal, state and local government web resources and services.